sensor_id;sensor_type;location;lat;lon;timestamp;temperature;humidity
30459;DHT22;17254;50.976;7.034;2022-07-29T00:00:02;18.30;99.90
30459;DHT22;17254;50.976;7.034;2022-07-29T00:00:35;18.20;99.90
30459;DHT22;17254;50.976;7.034;2022-07-29T00:01:06;18.20;99.90
30459;DHT22;17254;50.976;7.034;2022-07-29T00:01:37;18.20;99.90
30459;DHT22;17254;50.976;7.034;2022-07-29T00:02:09;18.20;99.90
30459;DHT22;17254;50.976;7.034;2022-07-29T00:02:40;18.20;99.90
30459;DHT22;17254;50.976;7.034;2022-07-29T00:03:12;18.20;99.90
30459;DHT22;17254;50.976;7.034;2022-07-29T00:03:44;18.20;99.90
30459;DHT22;17254;50.976;7.034;2022-07-29T00:04:15;18.20;99.90
30459;DHT22;17254;50.976;7.034;2022-07-29T00:04:52;18.20;99.90
30459;DHT22;17254;50.976;7.034;2022-07-29T00:05:24;18.20;99.90
30459;DHT22;17254;50.976;7.034;2022-07-29T00:05:55;18.30;99.90
30459;DHT22;17254;50.976;7.034;2022-07-29T00:06:26;18.30;99.90
30459;DHT22;17254;50.976;7.034;2022-07-29T00:06:58;18.20;99.90
30459;DHT22;17254;50.976;7.034;2022-07-29T00:07:29;18.20;99.90
30459;DHT22;17254;50.976;7.034;2022-07-29T00:08:00;18.20;99.90
30459;DHT22;17254;50.976;7.034;2022-07-29T00:08:32;18.20;99.90
30459;DHT22;17254;50.976;7.034;2022-07-29T00:09:03;18.10;99.90
30459;DHT22;17254;50.976;7.034;2022-07-29T00:09:34;18.10;99.90
30459;DHT22;17254;50.976;7.034;2022-07-29T00:10:06;18.10;99.90
30459;DHT22;17254;50.976;7.034;2022-07-29T00:10:37;18.10;99.90
30459;DHT22;17254;50.976;7.034;2022-07-29T00:11:09;18.10;99.90
30459;DHT22;17254;50.976;7.034;2022-07-29T00:11:45;18.20;99.90
30459;DHT22;17254;50.976;7.034;2022-07-29T00:12:16;18.30;99.90
30459;DHT22;17254;50.976;7.034;2022-07-29T00:12:49;18.40;99.90
30459;DHT22;17254;50.976;7.034;2022-07-29T00:13:22;18.40;99.90
30459;DHT22;17254;50.976;7.034;2022-07-29T00:13:53;18.40;99.90
30459;DHT22;17254;50.976;7.034;2022-07-29T00:14:26;18.40;99.90
30459;DHT22;17254;50.976;7.034;2022-07-29T00:14:57;18.40;99.90
30459;DHT22;17254;50.976;7.034;2022-07-29T00:15:28;18.30;99.90
30459;DHT22;17254;50.976;7.034;2022-07-29T00:16:00;18.30;99.90
30459;DHT22;17254;50.976;7.034;2022-07-29T00:16:31;18.30;99.90
30459;DHT22;17254;50.976;7.034;2022-07-29T00:17:02;18.30;99.90
30459;DHT22;17254;50.976;7.034;2022-07-29T00:17:34;18.40;99.90
30459;DHT22;17254;50.976;7.034;2022-07-29T00:18:07;18.40;99.90
30459;DHT22;17254;50.976;7.034;2022-07-29T00:18:38;18.40;99.90
30459;DHT22;17254;50.976;7.034;2022-07-29T00:19:13;18.30;99.90
30459;DHT22;17254;50.976;7.034;2022-07-29T00:19:44;18.30;99.90
30459;DHT22;17254;50.976;7.034;2022-07-29T00:20:15;18.40;99.90
30459;DHT22;17254;50.976;7.034;2022-07-29T00:20:47;18.40;99.90
30459;DHT22;17254;50.976;7.034;2022-07-29T00:21:19;18.30;99.90
30459;DHT22;17254;50.976;7.034;2022-07-29T00:21:50;18.40;99.90
30459;DHT22;17254;50.976;7.034;2022-07-29T00:22:22;18.40;99.90
30459;DHT22;17254;50.976;7.034;2022-07-29T00:22:53;18.50;99.90
30459;DHT22;17254;50.976;7.034;2022-07-29T00:23:24;18.50;99.90
30459;DHT22;17254;50.976;7.034;2022-07-29T00:23:56;18.50;99.90
30459;DHT22;17254;50.976;7.034;2022-07-29T00:24:27;18.60;99.90
30459;DHT22;17254;50.976;7.034;2022-07-29T00:24:58;18.60;99.90
30459;DHT22;17254;50.976;7.034;2022-07-29T00:25:30;18.50;99.90
30459;DHT22;17254;50.976;7.034;2022-07-29T00:26:01;18.50;99.90
30459;DHT22;17254;50.976;7.034;2022-07-29T00:26:32;18.50;99.90
30459;DHT22;17254;50.976;7.034;2022-07-29T00:27:06;18.50;99.90
30459;DHT22;17254;50.976;7.034;2022-07-29T00:27:37;18.50;99.90
30459;DHT22;17254;50.976;7.034;2022-07-29T00:28:08;18.50;99.90
30459;DHT22;17254;50.976;7.034;2022-07-29T00:28:40;18.50;99.90
30459;DHT22;17254;50.976;7.034;2022-07-29T00:29:11;18.50;99.90
30459;DHT22;17254;50.976;7.034;2022-07-29T00:29:42;18.50;99.90
30459;DHT22;17254;50.976;7.034;2022-07-29T00:30:14;18.50;99.90
30459;DHT22;17254;50.976;7.034;2022-07-29T00:30:46;18.50;99.90
30459;DHT22;17254;50.976;7.034;2022-07-29T00:31:17;18.50;99.90
30459;DHT22;17254;50.976;7.034;2022-07-29T00:31:51;18.50;99.90
30459;DHT22;17254;50.976;7.034;2022-07-29T00:32:22;18.50;99.90
30459;DHT22;17254;50.976;7.034;2022-07-29T00:32:53;18.50;99.90
30459;DHT22;17254;50.976;7.034;2022-07-29T00:33:25;18.60;99.90
30459;DHT22;17254;50.976;7.034;2022-07-29T00:33:56;18.60;99.90
30459;DHT22;17254;50.976;7.034;2022-07-29T00:34:27;18.60;99.90
30459;DHT22;17254;50.976;7.034;2022-07-29T00:35:17;18.50;99.90
30459;DHT22;17254;50.976;7.034;2022-07-29T00:36:12;18.60;99.90
30459;DHT22;17254;50.976;7.034;2022-07-29T00:36:43;18.50;99.90
30459;DHT22;17254;50.976;7.034;2022-07-29T00:37:15;18.60;99.90
30459;DHT22;17254;50.976;7.034;2022-07-29T00:37:46;18.50;99.90
30459;DHT22;17254;50.976;7.034;2022-07-29T00:38:20;18.50;99.90
30459;DHT22;17254;50.976;7.034;2022-07-29T00:38:52;18.60;99.90
30459;DHT22;17254;50.976;7.034;2022-07-29T00:39:23;18.60;99.90
30459;DHT22;17254;50.976;7.034;2022-07-29T00:39:54;18.60;99.90
30459;DHT22;17254;50.976;7.034;2022-07-29T00:40:26;18.50;99.90
30459;DHT22;17254;50.976;7.034;2022-07-29T00:40:57;18.50;99.90
30459;DHT22;17254;50.976;7.034;2022-07-29T00:41:29;18.50;99.90
30459;DHT22;17254;50.976;7.034;2022-07-29T00:42:02;18.50;99.90
30459;DHT22;17254;50.976;7.034;2022-07-29T00:42:42;18.50;99.90
30459;DHT22;17254;50.976;7.034;2022-07-29T00:43:14;18.50;99.90
30459;DHT22;17254;50.976;7.034;2022-07-29T00:43:46;18.50;99.90
30459;DHT22;17254;50.976;7.034;2022-07-29T00:44:17;18.40;99.90
30459;DHT22;17254;50.976;7.034;2022-07-29T00:44:48;18.40;99.90
30459;DHT22;17254;50.976;7.034;2022-07-29T00:45:20;18.40;99.90
30459;DHT22;17254;50.976;7.034;2022-07-29T00:45:52;18.40;99.90
30459;DHT22;17254;50.976;7.034;2022-07-29T00:46:23;18.40;99.90
30459;DHT22;17254;50.976;7.034;2022-07-29T00:46:55;18.40;99.90
30459;DHT22;17254;50.976;7.034;2022-07-29T00:47:29;18.40;99.90
30459;DHT22;17254;50.976;7.034;2022-07-29T00:48:00;18.40;99.90
30459;DHT22;17254;50.976;7.034;2022-07-29T00:48:32;18.40;99.90
30459;DHT22;17254;50.976;7.034;2022-07-29T00:49:08;18.40;99.90
30459;DHT22;17254;50.976;7.034;2022-07-29T00:49:40;18.30;99.90
30459;DHT22;17254;50.976;7.034;2022-07-29T00:50:13;18.30;99.90
30459;DHT22;17254;50.976;7.034;2022-07-29T00:50:44;18.30;99.90
30459;DHT22;17254;50.976;7.034;2022-07-29T00:51:17;18.30;99.90
30459;DHT22;17254;50.976;7.034;2022-07-29T00:51:48;18.30;99.90
30459;DHT22;17254;50.976;7.034;2022-07-29T00:52:20;18.30;99.90
30459;DHT22;17254;50.976;7.034;2022-07-29T00:52:52;18.30;99.90
30459;DHT22;17254;50.976;7.034;2022-07-29T00:53:25;18.30;99.90
30459;DHT22;17254;50.976;7.034;2022-07-29T00:53:56;18.20;99.90
30459;DHT22;17254;50.976;7.034;2022-07-29T00:54:27;18.30;99.90
30459;DHT22;17254;50.976;7.034;2022-07-29T00:54:59;18.30;99.90
30459;DHT22;17254;50.976;7.034;2022-07-29T00:55:31;18.30;99.90
30459;DHT22;17254;50.976;7.034;2022-07-29T00:56:02;18.30;99.90
30459;DHT22;17254;50.976;7.034;2022-07-29T00:56:34;18.30;99.90
30459;DHT22;17254;50.976;7.034;2022-07-29T00:57:06;18.20;99.90
30459;DHT22;17254;50.976;7.034;2022-07-29T00:57:38;18.20;99.90
30459;DHT22;17254;50.976;7.034;2022-07-29T00:58:12;18.20;99.90
30459;DHT22;17254;50.976;7.034;2022-07-29T00:58:45;18.20;99.90
30459;DHT22;17254;50.976;7.034;2022-07-29T00:59:17;18.20;99.90
30459;DHT22;17254;50.976;7.034;2022-07-29T00:59:48;18.20;99.90
30459;DHT22;17254;50.976;7.034;2022-07-29T01:00:22;18.20;99.90
30459;DHT22;17254;50.976;7.034;2022-07-29T01:00:53;18.20;99.90
30459;DHT22;17254;50.976;7.034;2022-07-29T01:01:27;18.20;99.90
30459;DHT22;17254;50.976;7.034;2022-07-29T01:01:59;18.20;99.90
30459;DHT22;17254;50.976;7.034;2022-07-29T01:02:30;18.20;99.90
30459;DHT22;17254;50.976;7.034;2022-07-29T01:03:03;18.20;99.90
30459;DHT22;17254;50.976;7.034;2022-07-29T01:03:35;18.20;99.90
30459;DHT22;17254;50.976;7.034;2022-07-29T01:04:06;18.20;99.90
30459;DHT22;17254;50.976;7.034;2022-07-29T01:04:37;18.20;99.90
30459;DHT22;17254;50.976;7.034;2022-07-29T01:05:11;18.20;99.90
30459;DHT22;17254;50.976;7.034;2022-07-29T01:05:44;18.20;99.90
30459;DHT22;17254;50.976;7.034;2022-07-29T01:06:16;18.20;99.90
30459;DHT22;17254;50.976;7.034;2022-07-29T01:06:48;18.20;99.90
30459;DHT22;17254;50.976;7.034;2022-07-29T01:07:20;18.20;99.90
30459;DHT22;17254;50.976;7.034;2022-07-29T01:07:53;18.20;99.90
30459;DHT22;17254;50.976;7.034;2022-07-29T01:08:25;18.10;99.90
30459;DHT22;17254;50.976;7.034;2022-07-29T01:08:56;18.20;99.90
30459;DHT22;17254;50.976;7.034;2022-07-29T01:09:28;18.10;99.90
30459;DHT22;17254;50.976;7.034;2022-07-29T01:10:02;18.10;99.90
30459;DHT22;17254;50.976;7.034;2022-07-29T01:10:34;18.10;99.90
30459;DHT22;17254;50.976;7.034;2022-07-29T01:11:08;18.10;99.90
30459;DHT22;17254;50.976;7.034;2022-07-29T01:11:40;18.00;99.90
30459;DHT22;17254;50.976;7.034;2022-07-29T01:12:13;18.10;99.90
30459;DHT22;17254;50.976;7.034;2022-07-29T01:12:48;18.00;99.90
30459;DHT22;17254;50.976;7.034;2022-07-29T01:13:22;18.00;99.90
30459;DHT22;17254;50.976;7.034;2022-07-29T01:13:53;18.10;99.90
30459;DHT22;17254;50.976;7.034;2022-07-29T01:14:25;18.00;99.90
30459;DHT22;17254;50.976;7.034;2022-07-29T01:14:58;18.00;99.90
30459;DHT22;17254;50.976;7.034;2022-07-29T01:15:30;18.00;99.90
30459;DHT22;17254;50.976;7.034;2022-07-29T01:16:06;18.00;99.90
30459;DHT22;17254;50.976;7.034;2022-07-29T01:16:44;17.90;99.90
30459;DHT22;17254;50.976;7.034;2022-07-29T01:17:20;17.90;99.90
30459;DHT22;17254;50.976;7.034;2022-07-29T01:18:02;17.90;99.90
30459;DHT22;17254;50.976;7.034;2022-07-29T01:18:39;17.80;99.90
30459;DHT22;17254;50.976;7.034;2022-07-29T01:19:26;17.80;99.90
30459;DHT22;17254;50.976;7.034;2022-07-29T01:20:10;17.80;99.90
30459;DHT22;17254;50.976;7.034;2022-07-29T01:21:05;17.80;99.90
30459;DHT22;17254;50.976;7.034;2022-07-29T01:21:53;17.70;99.90
30459;DHT22;17254;50.976;7.034;2022-07-29T01:22:29;17.70;99.90
30459;DHT22;17254;50.976;7.034;2022-07-29T01:23:16;17.80;99.90
30459;DHT22;17254;50.976;7.034;2022-07-29T01:26:45;17.70;99.90
30459;DHT22;17254;50.976;7.034;2022-07-29T01:27:32;17.70;99.90
30459;DHT22;17254;50.976;7.034;2022-07-29T01:29:11;17.70;99.90
30459;DHT22;17254;50.976;7.034;2022-07-29T01:29:46;17.60;99.90
30459;DHT22;17254;50.976;7.034;2022-07-29T01:30:20;17.60;99.90
30459;DHT22;17254;50.976;7.034;2022-07-29T01:30:54;17.60;99.90
30459;DHT22;17254;50.976;7.034;2022-07-29T01:31:31;17.50;99.90
30459;DHT22;17254;50.976;7.034;2022-07-29T01:32:07;17.50;99.90
30459;DHT22;17254;50.976;7.034;2022-07-29T01:32:40;17.50;99.90
30459;DHT22;17254;50.976;7.034;2022-07-29T01:33:15;17.50;99.90
30459;DHT22;17254;50.976;7.034;2022-07-29T01:34:05;17.50;99.90
30459;DHT22;17254;50.976;7.034;2022-07-29T01:34:42;17.50;99.90
30459;DHT22;17254;50.976;7.034;2022-07-29T01:35:19;17.50;99.90
30459;DHT22;17254;50.976;7.034;2022-07-29T01:35:52;17.60;99.90
30459;DHT22;17254;50.976;7.034;2022-07-29T01:36:30;17.60;99.90
30459;DHT22;17254;50.976;7.034;2022-07-29T01:37:13;17.60;99.90
30459;DHT22;17254;50.976;7.034;2022-07-29T01:37:57;17.70;99.90
30459;DHT22;17254;50.976;7.034;2022-07-29T01:38:31;17.70;99.90
30459;DHT22;17254;50.976;7.034;2022-07-29T01:39:07;17.60;99.90
30459;DHT22;17254;50.976;7.034;2022-07-29T01:39:41;17.60;99.90
30459;DHT22;17254;50.976;7.034;2022-07-29T01:40:25;17.60;99.90
30459;DHT22;17254;50.976;7.034;2022-07-29T01:41:05;17.50;99.90
30459;DHT22;17254;50.976;7.034;2022-07-29T01:41:48;17.50;99.90
30459;DHT22;17254;50.976;7.034;2022-07-29T01:42:25;17.50;99.90
30459;DHT22;17254;50.976;7.034;2022-07-29T01:43:03;17.50;99.90
30459;DHT22;17254;50.976;7.034;2022-07-29T01:43:41;17.50;99.90
30459;DHT22;17254;50.976;7.034;2022-07-29T01:44:18;17.50;99.90
30459;DHT22;17254;50.976;7.034;2022-07-29T01:44:55;17.50;99.90
30459;DHT22;17254;50.976;7.034;2022-07-29T01:45:34;17.40;99.90
30459;DHT22;17254;50.976;7.034;2022-07-29T01:46:11;17.40;99.90
30459;DHT22;17254;50.976;7.034;2022-07-29T01:46:49;17.40;99.90
30459;DHT22;17254;50.976;7.034;2022-07-29T01:47:25;17.40;99.90
30459;DHT22;17254;50.976;7.034;2022-07-29T01:48:02;17.40;99.90
30459;DHT22;17254;50.976;7.034;2022-07-29T01:48:38;17.40;99.90
30459;DHT22;17254;50.976;7.034;2022-07-29T01:49:15;17.30;99.90
30459;DHT22;17254;50.976;7.034;2022-07-29T01:49:51;17.30;99.90
30459;DHT22;17254;50.976;7.034;2022-07-29T01:50:33;17.30;99.90
30459;DHT22;17254;50.976;7.034;2022-07-29T01:51:09;17.30;99.90
30459;DHT22;17254;50.976;7.034;2022-07-29T01:51:46;17.30;99.90
30459;DHT22;17254;50.976;7.034;2022-07-29T01:52:21;17.30;99.90
30459;DHT22;17254;50.976;7.034;2022-07-29T01:52:56;17.30;99.90
30459;DHT22;17254;50.976;7.034;2022-07-29T01:53:33;17.20;99.90
30459;DHT22;17254;50.976;7.034;2022-07-29T01:54:10;17.20;99.90
30459;DHT22;17254;50.976;7.034;2022-07-29T01:54:46;17.20;99.90
30459;DHT22;17254;50.976;7.034;2022-07-29T01:55:22;17.20;99.90
30459;DHT22;17254;50.976;7.034;2022-07-29T01:55:56;17.20;99.90
30459;DHT22;17254;50.976;7.034;2022-07-29T01:56:29;17.30;99.90
30459;DHT22;17254;50.976;7.034;2022-07-29T01:57:05;17.30;99.90
30459;DHT22;17254;50.976;7.034;2022-07-29T01:57:42;17.30;99.90
30459;DHT22;17254;50.976;7.034;2022-07-29T01:58:14;17.30;99.90
30459;DHT22;17254;50.976;7.034;2022-07-29T01:58:48;17.20;99.90
30459;DHT22;17254;50.976;7.034;2022-07-29T01:59:22;17.30;99.90
30459;DHT22;17254;50.976;7.034;2022-07-29T01:59:57;17.20;99.90
30459;DHT22;17254;50.976;7.034;2022-07-29T02:00:31;17.20;99.90
30459;DHT22;17254;50.976;7.034;2022-07-29T02:01:04;17.20;99.90
30459;DHT22;17254;50.976;7.034;2022-07-29T02:01:36;17.30;99.90
30459;DHT22;17254;50.976;7.034;2022-07-29T02:02:08;17.30;99.90
30459;DHT22;17254;50.976;7.034;2022-07-29T02:02:44;17.40;99.90
30459;DHT22;17254;50.976;7.034;2022-07-29T02:03:21;17.40;99.90
30459;DHT22;17254;50.976;7.034;2022-07-29T02:03:55;17.50;99.90
30459;DHT22;17254;50.976;7.034;2022-07-29T02:04:28;17.60;99.90
30459;DHT22;17254;50.976;7.034;2022-07-29T02:05:01;17.60;99.90
30459;DHT22;17254;50.976;7.034;2022-07-29T02:05:36;17.60;99.90
30459;DHT22;17254;50.976;7.034;2022-07-29T02:06:10;17.50;99.90
30459;DHT22;17254;50.976;7.034;2022-07-29T02:06:42;17.60;99.90
30459;DHT22;17254;50.976;7.034;2022-07-29T02:07:19;17.70;99.90
30459;DHT22;17254;50.976;7.034;2022-07-29T02:07:51;17.70;99.90
30459;DHT22;17254;50.976;7.034;2022-07-29T02:08:24;17.70;99.90
30459;DHT22;17254;50.976;7.034;2022-07-29T02:08:58;17.70;99.90
30459;DHT22;17254;50.976;7.034;2022-07-29T02:09:34;17.70;99.90
30459;DHT22;17254;50.976;7.034;2022-07-29T02:10:07;17.70;99.90
30459;DHT22;17254;50.976;7.034;2022-07-29T02:10:41;17.70;99.90
30459;DHT22;17254;50.976;7.034;2022-07-29T02:11:13;17.60;99.90
30459;DHT22;17254;50.976;7.034;2022-07-29T02:11:51;17.60;99.90
30459;DHT22;17254;50.976;7.034;2022-07-29T02:12:24;17.60;99.90
30459;DHT22;17254;50.976;7.034;2022-07-29T02:12:57;17.60;99.90
30459;DHT22;17254;50.976;7.034;2022-07-29T02:13:29;17.60;99.90
30459;DHT22;17254;50.976;7.034;2022-07-29T02:14:04;17.50;99.90
30459;DHT22;17254;50.976;7.034;2022-07-29T02:14:40;17.60;99.90
30459;DHT22;17254;50.976;7.034;2022-07-29T02:15:13;17.60;99.90
30459;DHT22;17254;50.976;7.034;2022-07-29T02:15:46;17.60;99.90
30459;DHT22;17254;50.976;7.034;2022-07-29T02:16:20;17.60;99.90
30459;DHT22;17254;50.976;7.034;2022-07-29T02:16:53;17.70;99.90
30459;DHT22;17254;50.976;7.034;2022-07-29T02:17:31;17.70;99.90
30459;DHT22;17254;50.976;7.034;2022-07-29T02:18:08;17.70;99.90
30459;DHT22;17254;50.976;7.034;2022-07-29T02:18:43;17.60;99.90
30459;DHT22;17254;50.976;7.034;2022-07-29T02:19:18;17.60;99.90
30459;DHT22;17254;50.976;7.034;2022-07-29T02:19:51;17.50;99.90
30459;DHT22;17254;50.976;7.034;2022-07-29T02:20:25;17.50;99.90
30459;DHT22;17254;50.976;7.034;2022-07-29T02:20:58;17.50;99.90
30459;DHT22;17254;50.976;7.034;2022-07-29T02:21:32;17.40;99.90
30459;DHT22;17254;50.976;7.034;2022-07-29T02:22:05;17.40;99.90
30459;DHT22;17254;50.976;7.034;2022-07-29T02:22:39;17.40;99.90
30459;DHT22;17254;50.976;7.034;2022-07-29T02:23:12;17.40;99.90
30459;DHT22;17254;50.976;7.034;2022-07-29T02:23:46;17.40;99.90
30459;DHT22;17254;50.976;7.034;2022-07-29T02:24:18;17.40;99.90
30459;DHT22;17254;50.976;7.034;2022-07-29T02:24:51;17.30;99.90
30459;DHT22;17254;50.976;7.034;2022-07-29T02:25:23;17.30;99.90
30459;DHT22;17254;50.976;7.034;2022-07-29T02:25:56;17.30;99.90
30459;DHT22;17254;50.976;7.034;2022-07-29T02:26:29;17.30;99.90
30459;DHT22;17254;50.976;7.034;2022-07-29T02:27:03;17.30;99.90
30459;DHT22;17254;50.976;7.034;2022-07-29T02:27:37;17.30;99.90
30459;DHT22;17254;50.976;7.034;2022-07-29T02:28:10;17.20;99.90
30459;DHT22;17254;50.976;7.034;2022-07-29T02:28:42;17.20;99.90
30459;DHT22;17254;50.976;7.034;2022-07-29T02:29:15;17.30;99.90
30459;DHT22;17254;50.976;7.034;2022-07-29T02:29:49;17.30;99.90
30459;DHT22;17254;50.976;7.034;2022-07-29T02:30:21;17.20;99.90
30459;DHT22;17254;50.976;7.034;2022-07-29T02:30:56;17.20;99.90
30459;DHT22;17254;50.976;7.034;2022-07-29T02:31:32;17.20;99.90
30459;DHT22;17254;50.976;7.034;2022-07-29T02:32:05;17.10;99.90
30459;DHT22;17254;50.976;7.034;2022-07-29T02:32:40;17.10;99.90
30459;DHT22;17254;50.976;7.034;2022-07-29T02:33:15;17.00;99.90
30459;DHT22;17254;50.976;7.034;2022-07-29T02:33:51;17.00;99.90
30459;DHT22;17254;50.976;7.034;2022-07-29T02:34:23;17.00;99.90
30459;DHT22;17254;50.976;7.034;2022-07-29T02:34:55;16.90;99.90
30459;DHT22;17254;50.976;7.034;2022-07-29T02:35:27;16.90;99.90
30459;DHT22;17254;50.976;7.034;2022-07-29T02:35:59;16.90;99.90
30459;DHT22;17254;50.976;7.034;2022-07-29T02:36:33;16.80;99.90
30459;DHT22;17254;50.976;7.034;2022-07-29T02:37:05;16.80;99.90
30459;DHT22;17254;50.976;7.034;2022-07-29T02:37:37;16.80;99.90
30459;DHT22;17254;50.976;7.034;2022-07-29T02:38:10;16.70;99.90
30459;DHT22;17254;50.976;7.034;2022-07-29T02:39:02;16.70;99.90
30459;DHT22;17254;50.976;7.034;2022-07-29T02:39:34;16.70;99.90
30459;DHT22;17254;50.976;7.034;2022-07-29T02:40:10;16.80;99.90
30459;DHT22;17254;50.976;7.034;2022-07-29T02:40:42;16.70;99.90
30459;DHT22;17254;50.976;7.034;2022-07-29T02:41:17;16.70;99.90
30459;DHT22;17254;50.976;7.034;2022-07-29T02:41:52;16.70;99.90
30459;DHT22;17254;50.976;7.034;2022-07-29T02:42:26;16.60;99.90
30459;DHT22;17254;50.976;7.034;2022-07-29T02:43:00;16.60;99.90
30459;DHT22;17254;50.976;7.034;2022-07-29T02:43:33;16.50;99.90
30459;DHT22;17254;50.976;7.034;2022-07-29T02:44:06;16.50;99.90
30459;DHT22;17254;50.976;7.034;2022-07-29T02:44:40;16.60;99.90
30459;DHT22;17254;50.976;7.034;2022-07-29T02:45:13;16.60;99.90
30459;DHT22;17254;50.976;7.034;2022-07-29T02:45:45;16.50;99.90
30459;DHT22;17254;50.976;7.034;2022-07-29T02:46:26;16.50;99.90
30459;DHT22;17254;50.976;7.034;2022-07-29T02:47:04;16.50;99.90
30459;DHT22;17254;50.976;7.034;2022-07-29T02:47:42;16.50;99.90
30459;DHT22;17254;50.976;7.034;2022-07-29T02:48:16;16.40;99.90
30459;DHT22;17254;50.976;7.034;2022-07-29T02:48:51;16.40;99.90
30459;DHT22;17254;50.976;7.034;2022-07-29T02:49:34;16.40;99.90
30459;DHT22;17254;50.976;7.034;2022-07-29T02:50:08;16.40;99.90
30459;DHT22;17254;50.976;7.034;2022-07-29T02:50:46;16.40;99.90
30459;DHT22;17254;50.976;7.034;2022-07-29T02:51:24;16.40;99.90
30459;DHT22;17254;50.976;7.034;2022-07-29T02:51:59;16.40;99.90
30459;DHT22;17254;50.976;7.034;2022-07-29T02:52:37;16.40;99.90
30459;DHT22;17254;50.976;7.034;2022-07-29T02:53:14;16.40;99.90
30459;DHT22;17254;50.976;7.034;2022-07-29T02:53:49;16.40;99.90
30459;DHT22;17254;50.976;7.034;2022-07-29T02:54:29;16.40;99.90
30459;DHT22;17254;50.976;7.034;2022-07-29T02:55:07;16.40;99.90
30459;DHT22;17254;50.976;7.034;2022-07-29T02:55:46;16.40;99.90
30459;DHT22;17254;50.976;7.034;2022-07-29T02:56:27;16.50;99.90
30459;DHT22;17254;50.976;7.034;2022-07-29T02:57:00;16.50;99.90
30459;DHT22;17254;50.976;7.034;2022-07-29T02:57:41;16.60;99.90
30459;DHT22;17254;50.976;7.034;2022-07-29T02:58:17;16.60;99.90
30459;DHT22;17254;50.976;7.034;2022-07-29T02:58:55;16.70;99.90
30459;DHT22;17254;50.976;7.034;2022-07-29T02:59:29;16.80;99.90
30459;DHT22;17254;50.976;7.034;2022-07-29T03:00:04;16.80;99.90
30459;DHT22;17254;50.976;7.034;2022-07-29T03:00:39;16.90;99.90
30459;DHT22;17254;50.976;7.034;2022-07-29T03:01:14;16.80;99.90
30459;DHT22;17254;50.976;7.034;2022-07-29T03:01:46;16.80;99.90
30459;DHT22;17254;50.976;7.034;2022-07-29T03:02:18;16.80;99.90
30459;DHT22;17254;50.976;7.034;2022-07-29T03:02:54;16.80;99.90
30459;DHT22;17254;50.976;7.034;2022-07-29T03:03:29;16.80;99.90
30459;DHT22;17254;50.976;7.034;2022-07-29T03:04:04;16.80;99.90
30459;DHT22;17254;50.976;7.034;2022-07-29T03:04:36;16.80;99.90
30459;DHT22;17254;50.976;7.034;2022-07-29T03:05:14;16.80;99.90
30459;DHT22;17254;50.976;7.034;2022-07-29T03:05:47;16.90;99.90
30459;DHT22;17254;50.976;7.034;2022-07-29T03:06:21;16.80;99.90
30459;DHT22;17254;50.976;7.034;2022-07-29T03:06:53;16.80;99.90
30459;DHT22;17254;50.976;7.034;2022-07-29T03:07:26;16.90;99.90
30459;DHT22;17254;50.976;7.034;2022-07-29T03:08:00;16.80;99.90
30459;DHT22;17254;50.976;7.034;2022-07-29T03:08:34;16.80;99.90
30459;DHT22;17254;50.976;7.034;2022-07-29T03:09:07;16.80;99.90
30459;DHT22;17254;50.976;7.034;2022-07-29T03:09:40;16.80;99.90
30459;DHT22;17254;50.976;7.034;2022-07-29T03:10:12;16.80;99.90
30459;DHT22;17254;50.976;7.034;2022-07-29T03:10:45;16.80;99.90
30459;DHT22;17254;50.976;7.034;2022-07-29T03:11:17;16.80;99.90
30459;DHT22;17254;50.976;7.034;2022-07-29T03:11:49;16.90;99.90
30459;DHT22;17254;50.976;7.034;2022-07-29T03:12:22;16.90;99.90
30459;DHT22;17254;50.976;7.034;2022-07-29T03:12:54;16.90;99.90
30459;DHT22;17254;50.976;7.034;2022-07-29T03:13:27;16.90;99.90
30459;DHT22;17254;50.976;7.034;2022-07-29T03:13:59;16.90;99.90
30459;DHT22;17254;50.976;7.034;2022-07-29T03:14:31;16.80;99.90
30459;DHT22;17254;50.976;7.034;2022-07-29T03:15:03;16.80;99.90
30459;DHT22;17254;50.976;7.034;2022-07-29T03:15:35;16.80;99.90
30459;DHT22;17254;50.976;7.034;2022-07-29T03:16:09;16.80;99.90
30459;DHT22;17254;50.976;7.034;2022-07-29T03:16:41;16.80;99.90
30459;DHT22;17254;50.976;7.034;2022-07-29T03:17:13;16.80;99.90
30459;DHT22;17254;50.976;7.034;2022-07-29T03:17:46;16.80;99.90
30459;DHT22;17254;50.976;7.034;2022-07-29T03:18:17;16.80;99.90
30459;DHT22;17254;50.976;7.034;2022-07-29T03:18:50;16.80;99.90
30459;DHT22;17254;50.976;7.034;2022-07-29T03:19:21;16.80;99.90
30459;DHT22;17254;50.976;7.034;2022-07-29T03:19:52;16.80;99.90
30459;DHT22;17254;50.976;7.034;2022-07-29T03:20:26;16.80;99.90
30459;DHT22;17254;50.976;7.034;2022-07-29T03:20:57;16.80;99.90
30459;DHT22;17254;50.976;7.034;2022-07-29T03:21:30;16.80;99.90
30459;DHT22;17254;50.976;7.034;2022-07-29T03:22:01;16.80;99.90
30459;DHT22;17254;50.976;7.034;2022-07-29T03:22:41;16.80;99.90
30459;DHT22;17254;50.976;7.034;2022-07-29T03:23:18;16.80;99.90
30459;DHT22;17254;50.976;7.034;2022-07-29T03:23:49;16.80;99.90
30459;DHT22;17254;50.976;7.034;2022-07-29T03:24:30;16.80;99.90
30459;DHT22;17254;50.976;7.034;2022-07-29T03:25:08;16.80;99.90
30459;DHT22;17254;50.976;7.034;2022-07-29T03:25:39;16.90;99.90
30459;DHT22;17254;50.976;7.034;2022-07-29T03:26:11;16.90;99.90
30459;DHT22;17254;50.976;7.034;2022-07-29T03:26:42;17.00;99.90
30459;DHT22;17254;50.976;7.034;2022-07-29T03:27:13;16.90;99.90
30459;DHT22;17254;50.976;7.034;2022-07-29T03:27:44;17.00;99.90
30459;DHT22;17254;50.976;7.034;2022-07-29T03:28:16;17.00;99.90
30459;DHT22;17254;50.976;7.034;2022-07-29T03:28:47;16.90;99.90
30459;DHT22;17254;50.976;7.034;2022-07-29T03:29:19;16.90;99.90
30459;DHT22;17254;50.976;7.034;2022-07-29T03:29:50;16.90;99.90
30459;DHT22;17254;50.976;7.034;2022-07-29T03:30:21;16.90;99.90
30459;DHT22;17254;50.976;7.034;2022-07-29T03:30:53;16.90;99.90
30459;DHT22;17254;50.976;7.034;2022-07-29T03:31:26;17.00;99.90
30459;DHT22;17254;50.976;7.034;2022-07-29T03:31:57;16.90;99.90
30459;DHT22;17254;50.976;7.034;2022-07-29T03:32:28;16.90;99.90
30459;DHT22;17254;50.976;7.034;2022-07-29T03:32:59;17.00;99.90
30459;DHT22;17254;50.976;7.034;2022-07-29T03:33:31;17.00;99.90
30459;DHT22;17254;50.976;7.034;2022-07-29T03:34:02;17.10;99.90
30459;DHT22;17254;50.976;7.034;2022-07-29T03:34:33;17.10;99.90
30459;DHT22;17254;50.976;7.034;2022-07-29T03:35:08;17.10;99.90
30459;DHT22;17254;50.976;7.034;2022-07-29T03:35:39;17.20;99.90
30459;DHT22;17254;50.976;7.034;2022-07-29T03:36:10;17.20;99.90
30459;DHT22;17254;50.976;7.034;2022-07-29T03:36:44;17.30;99.90
30459;DHT22;17254;50.976;7.034;2022-07-29T03:37:15;17.30;99.90
30459;DHT22;17254;50.976;7.034;2022-07-29T03:37:46;17.40;99.90
30459;DHT22;17254;50.976;7.034;2022-07-29T03:38:19;17.40;99.90